sensor_id;sensor_type;location;lat;lon;timestamp;temperature;humidity
6518;DHT22;3292;48.944;9.240;2023-02-01T00:01:35;4.50;99.90
6518;DHT22;3292;48.944;9.240;2023-02-01T00:04:01;4.60;99.90
6518;DHT22;3292;48.944;9.240;2023-02-01T00:06:28;4.60;99.90
6518;DHT22;3292;48.944;9.240;2023-02-01T00:08:56;4.60;99.90
6518;DHT22;3292;48.944;9.240;2023-02-01T00:11:24;4.60;99.90
6518;DHT22;3292;48.944;9.240;2023-02-01T00:13:51;4.60;99.90
6518;DHT22;3292;48.944;9.240;2023-02-01T00:16:19;4.60;99.90
6518;DHT22;3292;48.944;9.240;2023-02-01T00:18:48;4.60;99.90
6518;DHT22;3292;48.944;9.240;2023-02-01T00:21:17;4.60;99.90
6518;DHT22;3292;48.944;9.240;2023-02-01T00:23:44;4.60;99.90
6518;DHT22;3292;48.944;9.240;2023-02-01T00:26:14;4.50;99.90
6518;DHT22;3292;48.944;9.240;2023-02-01T00:28:43;4.50;99.90
6518;DHT22;3292;48.944;9.240;2023-02-01T00:31:10;4.50;99.90
6518;DHT22;3292;48.944;9.240;2023-02-01T00:33:37;4.50;99.90
6518;DHT22;3292;48.944;9.240;2023-02-01T00:36:06;4.40;99.90
6518;DHT22;3292;48.944;9.240;2023-02-01T00:39:00;4.40;99.90
6518;DHT22;3292;48.944;9.240;2023-02-01T00:41:26;4.40;99.90
6518;DHT22;3292;48.944;9.240;2023-02-01T00:43:55;4.40;99.90
6518;DHT22;3292;48.944;9.240;2023-02-01T00:46:21;4.40;99.90
6518;DHT22;3292;48.944;9.240;2023-02-01T00:48:48;4.40;99.90
6518;DHT22;3292;48.944;9.240;2023-02-01T00:51:17;4.40;99.90
6518;DHT22;3292;48.944;9.240;2023-02-01T00:53:46;4.40;99.90
6518;DHT22;3292;48.944;9.240;2023-02-01T00:56:14;4.50;99.90
6518;DHT22;3292;48.944;9.240;2023-02-01T00:58:40;4.40;99.90
6518;DHT22;3292;48.944;9.240;2023-02-01T01:01:11;4.40;99.90
6518;DHT22;3292;48.944;9.240;2023-02-01T01:03:41;4.30;99.90
6518;DHT22;3292;48.944;9.240;2023-02-01T01:06:10;4.30;99.90
6518;DHT22;3292;48.944;9.240;2023-02-01T01:08:37;4.20;99.90
6518;DHT22;3292;48.944;9.240;2023-02-01T01:11:05;4.20;99.90
6518;DHT22;3292;48.944;9.240;2023-02-01T01:13:32;4.20;99.90
6518;DHT22;3292;48.944;9.240;2023-02-01T01:16:00;4.20;99.90
6518;DHT22;3292;48.944;9.240;2023-02-01T01:18:30;4.20;99.90
6518;DHT22;3292;48.944;9.240;2023-02-01T01:20:57;4.20;99.90
6518;DHT22;3292;48.944;9.240;2023-02-01T01:23:24;4.20;99.90
6518;DHT22;3292;48.944;9.240;2023-02-01T01:25:51;4.20;99.90
6518;DHT22;3292;48.944;9.240;2023-02-01T01:28:18;4.20;99.90
6518;DHT22;3292;48.944;9.240;2023-02-01T01:30:45;4.20;99.90
6518;DHT22;3292;48.944;9.240;2023-02-01T01:33:12;4.20;99.90
6518;DHT22;3292;48.944;9.240;2023-02-01T01:35:40;4.30;99.90
6518;DHT22;3292;48.944;9.240;2023-02-01T01:38:08;4.30;99.90
6518;DHT22;3292;48.944;9.240;2023-02-01T01:40:35;4.30;99.90
6518;DHT22;3292;48.944;9.240;2023-02-01T01:43:02;4.30;99.90
6518;DHT22;3292;48.944;9.240;2023-02-01T01:45:35;4.30;99.90
6518;DHT22;3292;48.944;9.240;2023-02-01T01:48:05;4.30;99.90
6518;DHT22;3292;48.944;9.240;2023-02-01T01:50:37;4.30;99.90
6518;DHT22;3292;48.944;9.240;2023-02-01T01:53:08;4.30;99.90
6518;DHT22;3292;48.944;9.240;2023-02-01T01:55:43;4.30;99.90
6518;DHT22;3292;48.944;9.240;2023-02-01T01:58:14;4.30;99.90
6518;DHT22;3292;48.944;9.240;2023-02-01T02:00:42;4.30;99.90
6518;DHT22;3292;48.944;9.240;2023-02-01T02:03:13;4.20;99.90
6518;DHT22;3292;48.944;9.240;2023-02-01T02:05:41;4.20;99.90
6518;DHT22;3292;48.944;9.240;2023-02-01T02:08:10;4.30;99.90
6518;DHT22;3292;48.944;9.240;2023-02-01T02:10:37;4.30;99.90
6518;DHT22;3292;48.944;9.240;2023-02-01T02:13:22;4.30;99.90
6518;DHT22;3292;48.944;9.240;2023-02-01T02:15:56;4.20;99.90
6518;DHT22;3292;48.944;9.240;2023-02-01T02:18:29;4.30;99.90
6518;DHT22;3292;48.944;9.240;2023-02-01T02:21:12;4.30;99.90
6518;DHT22;3292;48.944;9.240;2023-02-01T02:27:12;4.30;99.90
6518;DHT22;3292;48.944;9.240;2023-02-01T02:36:00;4.40;99.90
6518;DHT22;3292;48.944;9.240;2023-02-01T02:38:32;4.40;99.90
6518;DHT22;3292;48.944;9.240;2023-02-01T02:41:06;4.50;99.90
6518;DHT22;3292;48.944;9.240;2023-02-01T02:43:41;4.50;99.90
6518;DHT22;3292;48.944;9.240;2023-02-01T02:46:35;4.50;99.90
6518;DHT22;3292;48.944;9.240;2023-02-01T02:49:25;4.40;99.90
6518;DHT22;3292;48.944;9.240;2023-02-01T02:52:01;4.40;99.90
6518;DHT22;3292;48.944;9.240;2023-02-01T02:54:47;4.30;99.90
6518;DHT22;3292;48.944;9.240;2023-02-01T02:57:20;4.30;99.90
6518;DHT22;3292;48.944;9.240;2023-02-01T03:00:07;4.30;99.90
6518;DHT22;3292;48.944;9.240;2023-02-01T03:02:53;4.30;99.90
6518;DHT22;3292;48.944;9.240;2023-02-01T03:05:41;4.30;99.90
6518;DHT22;3292;48.944;9.240;2023-02-01T03:08:12;4.30;99.90
6518;DHT22;3292;48.944;9.240;2023-02-01T03:10:50;4.20;99.90
6518;DHT22;3292;48.944;9.240;2023-02-01T03:13:25;4.20;99.90
6518;DHT22;3292;48.944;9.240;2023-02-01T03:15:59;4.20;99.90
6518;DHT22;3292;48.944;9.240;2023-02-01T03:18:31;4.20;99.90
6518;DHT22;3292;48.944;9.240;2023-02-01T03:21:02;4.20;99.90
6518;DHT22;3292;48.944;9.240;2023-02-01T03:23:34;4.10;99.90
6518;DHT22;3292;48.944;9.240;2023-02-01T03:26:04;4.20;99.90
6518;DHT22;3292;48.944;9.240;2023-02-01T03:28:33;4.20;99.90
6518;DHT22;3292;48.944;9.240;2023-02-01T03:31:01;4.20;99.90
6518;DHT22;3292;48.944;9.240;2023-02-01T03:33:29;4.20;99.90
6518;DHT22;3292;48.944;9.240;2023-02-01T03:36:05;4.30;99.90
6518;DHT22;3292;48.944;9.240;2023-02-01T03:39:22;4.30;99.90
6518;DHT22;3292;48.944;9.240;2023-02-01T03:41:55;4.30;99.90
6518;DHT22;3292;48.944;9.240;2023-02-01T03:44:24;4.40;99.90
6518;DHT22;3292;48.944;9.240;2023-02-01T03:47:17;4.40;99.90
6518;DHT22;3292;48.944;9.240;2023-02-01T03:49:49;4.40;99.90
6518;DHT22;3292;48.944;9.240;2023-02-01T03:52:37;4.40;99.90
6518;DHT22;3292;48.944;9.240;2023-02-01T03:55:07;4.40;99.90
6518;DHT22;3292;48.944;9.240;2023-02-01T03:58:04;4.40;99.90
6518;DHT22;3292;48.944;9.240;2023-02-01T04:00:32;4.40;99.90
6518;DHT22;3292;48.944;9.240;2023-02-01T04:02:59;4.40;99.90
6518;DHT22;3292;48.944;9.240;2023-02-01T04:05:26;4.40;99.90
6518;DHT22;3292;48.944;9.240;2023-02-01T04:07:53;4.30;99.90
6518;DHT22;3292;48.944;9.240;2023-02-01T04:10:41;4.40;99.90
6518;DHT22;3292;48.944;9.240;2023-02-01T04:13:09;4.40;99.90
6518;DHT22;3292;48.944;9.240;2023-02-01T04:15:36;4.40;99.90
6518;DHT22;3292;48.944;9.240;2023-02-01T04:18:03;4.40;99.90
6518;DHT22;3292;48.944;9.240;2023-02-01T04:20:30;4.40;99.90
6518;DHT22;3292;48.944;9.240;2023-02-01T04:22:57;4.40;99.90
6518;DHT22;3292;48.944;9.240;2023-02-01T04:25:24;4.40;99.90
6518;DHT22;3292;48.944;9.240;2023-02-01T04:27:52;4.40;99.90
6518;DHT22;3292;48.944;9.240;2023-02-01T04:30:19;4.50;99.90
6518;DHT22;3292;48.944;9.240;2023-02-01T04:32:46;4.50;99.90
6518;DHT22;3292;48.944;9.240;2023-02-01T04:35:12;4.60;99.90
6518;DHT22;3292;48.944;9.240;2023-02-01T04:37:39;4.70;99.90
6518;DHT22;3292;48.944;9.240;2023-02-01T04:40:07;4.80;99.90
6518;DHT22;3292;48.944;9.240;2023-02-01T04:42:34;4.80;99.90
6518;DHT22;3292;48.944;9.240;2023-02-01T04:45:04;4.90;99.90
6518;DHT22;3292;48.944;9.240;2023-02-01T04:47:31;4.90;99.90
6518;DHT22;3292;48.944;9.240;2023-02-01T04:49:57;4.90;99.90
6518;DHT22;3292;48.944;9.240;2023-02-01T04:52:24;5.00;99.90
6518;DHT22;3292;48.944;9.240;2023-02-01T04:54:53;5.00;99.90
6518;DHT22;3292;48.944;9.240;2023-02-01T04:57:23;5.10;99.90
6518;DHT22;3292;48.944;9.240;2023-02-01T04:59:49;5.10;99.90
6518;DHT22;3292;48.944;9.240;2023-02-01T05:02:17;5.10;99.90
6518;DHT22;3292;48.944;9.240;2023-02-01T05:04:44;5.10;99.90
6518;DHT22;3292;48.944;9.240;2023-02-01T05:07:11;5.10;99.90
6518;DHT22;3292;48.944;9.240;2023-02-01T05:09:38;5.20;99.90
6518;DHT22;3292;48.944;9.240;2023-02-01T05:12:05;5.30;99.90
6518;DHT22;3292;48.944;9.240;2023-02-01T05:14:50;5.20;99.90
6518;DHT22;3292;48.944;9.240;2023-02-01T05:17:18;5.20;99.90
6518;DHT22;3292;48.944;9.240;2023-02-01T05:19:45;5.30;99.90
6518;DHT22;3292;48.944;9.240;2023-02-01T05:22:25;5.30;99.90
6518;DHT22;3292;48.944;9.240;2023-02-01T05:25:22;5.30;99.90
6518;DHT22;3292;48.944;9.240;2023-02-01T05:28:03;5.30;99.90
6518;DHT22;3292;48.944;9.240;2023-02-01T05:30:30;5.30;99.90
6518;DHT22;3292;48.944;9.240;2023-02-01T05:33:02;5.40;99.90
6518;DHT22;3292;48.944;9.240;2023-02-01T05:35:29;5.30;99.90
6518;DHT22;3292;48.944;9.240;2023-02-01T05:37:56;5.30;99.90
6518;DHT22;3292;48.944;9.240;2023-02-01T05:40:23;5.30;99.90
6518;DHT22;3292;48.944;9.240;2023-02-01T05:42:50;5.30;99.90
6518;DHT22;3292;48.944;9.240;2023-02-01T05:45:17;5.30;99.90
6518;DHT22;3292;48.944;9.240;2023-02-01T05:47:43;5.30;99.90
6518;DHT22;3292;48.944;9.240;2023-02-01T05:50:12;5.30;99.90
6518;DHT22;3292;48.944;9.240;2023-02-01T05:52:38;5.30;99.90
6518;DHT22;3292;48.944;9.240;2023-02-01T05:55:06;5.30;99.90
6518;DHT22;3292;48.944;9.240;2023-02-01T05:57:32;5.40;99.90
6518;DHT22;3292;48.944;9.240;2023-02-01T05:59:59;5.40;99.90
6518;DHT22;3292;48.944;9.240;2023-02-01T06:02:26;5.40;99.90
6518;DHT22;3292;48.944;9.240;2023-02-01T06:04:53;5.40;99.90
6518;DHT22;3292;48.944;9.240;2023-02-01T06:07:21;5.40;99.90
6518;DHT22;3292;48.944;9.240;2023-02-01T06:09:49;5.50;99.90
6518;DHT22;3292;48.944;9.240;2023-02-01T06:12:15;5.50;99.90
6518;DHT22;3292;48.944;9.240;2023-02-01T06:14:42;5.40;99.90
6518;DHT22;3292;48.944;9.240;2023-02-01T06:17:09;5.40;99.90
6518;DHT22;3292;48.944;9.240;2023-02-01T06:19:36;5.40;99.90
6518;DHT22;3292;48.944;9.240;2023-02-01T06:22:02;5.40;99.90
6518;DHT22;3292;48.944;9.240;2023-02-01T06:24:33;5.40;99.90
6518;DHT22;3292;48.944;9.240;2023-02-01T06:27:01;5.30;99.90
6518;DHT22;3292;48.944;9.240;2023-02-01T06:29:28;5.30;99.90
6518;DHT22;3292;48.944;9.240;2023-02-01T06:31:55;5.30;99.90
6518;DHT22;3292;48.944;9.240;2023-02-01T06:34:21;5.30;99.90
6518;DHT22;3292;48.944;9.240;2023-02-01T06:36:49;5.30;99.90
6518;DHT22;3292;48.944;9.240;2023-02-01T06:39:16;5.30;99.90
6518;DHT22;3292;48.944;9.240;2023-02-01T06:41:46;5.30;99.90
6518;DHT22;3292;48.944;9.240;2023-02-01T06:44:13;5.30;99.90
6518;DHT22;3292;48.944;9.240;2023-02-01T06:46:40;5.30;99.90
6518;DHT22;3292;48.944;9.240;2023-02-01T06:49:07;5.30;99.90
6518;DHT22;3292;48.944;9.240;2023-02-01T06:51:34;5.30;99.90
6518;DHT22;3292;48.944;9.240;2023-02-01T06:54:23;5.30;99.90
6518;DHT22;3292;48.944;9.240;2023-02-01T06:56:51;5.30;99.90
6518;DHT22;3292;48.944;9.240;2023-02-01T06:59:18;5.30;99.90
6518;DHT22;3292;48.944;9.240;2023-02-01T07:01:45;5.40;99.90
6518;DHT22;3292;48.944;9.240;2023-02-01T07:04:12;5.40;99.90
6518;DHT22;3292;48.944;9.240;2023-02-01T07:06:39;5.40;99.90
6518;DHT22;3292;48.944;9.240;2023-02-01T07:09:06;5.30;99.90
6518;DHT22;3292;48.944;9.240;2023-02-01T07:11:32;5.30;99.90
6518;DHT22;3292;48.944;9.240;2023-02-01T07:14:01;5.20;99.90
6518;DHT22;3292;48.944;9.240;2023-02-01T07:16:27;5.10;99.90
6518;DHT22;3292;48.944;9.240;2023-02-01T07:18:54;5.10;99.90
6518;DHT22;3292;48.944;9.240;2023-02-01T07:21:21;5.10;99.90
6518;DHT22;3292;48.944;9.240;2023-02-01T07:27:10;5.00;99.90
6518;DHT22;3292;48.944;9.240;2023-02-01T07:29:38;5.00;99.90
6518;DHT22;3292;48.944;9.240;2023-02-01T07:32:05;5.00;99.90
6518;DHT22;3292;48.944;9.240;2023-02-01T07:34:32;5.00;99.90
6518;DHT22;3292;48.944;9.240;2023-02-01T07:36:59;5.00;99.90
6518;DHT22;3292;48.944;9.240;2023-02-01T07:39:26;4.90;99.90
6518;DHT22;3292;48.944;9.240;2023-02-01T07:41:53;4.90;99.90
6518;DHT22;3292;48.944;9.240;2023-02-01T07:44:22;4.90;99.90
6518;DHT22;3292;48.944;9.240;2023-02-01T07:46:50;4.80;99.90
6518;DHT22;3292;48.944;9.240;2023-02-01T07:49:17;4.80;99.90
6518;DHT22;3292;48.944;9.240;2023-02-01T07:51:43;4.80;99.90
6518;DHT22;3292;48.944;9.240;2023-02-01T07:54:10;4.70;99.90
6518;DHT22;3292;48.944;9.240;2023-02-01T07:56:37;4.70;99.90
6518;DHT22;3292;48.944;9.240;2023-02-01T07:59:04;4.70;99.90
6518;DHT22;3292;48.944;9.240;2023-02-01T08:01:32;4.70;99.90
6518;DHT22;3292;48.944;9.240;2023-02-01T08:04:02;4.70;99.90
6518;DHT22;3292;48.944;9.240;2023-02-01T08:06:30;4.70;99.90
6518;DHT22;3292;48.944;9.240;2023-02-01T08:08:58;4.80;99.90
6518;DHT22;3292;48.944;9.240;2023-02-01T08:11:27;4.80;99.90
6518;DHT22;3292;48.944;9.240;2023-02-01T08:13:54;4.80;99.90
6518;DHT22;3292;48.944;9.240;2023-02-01T08:16:22;4.80;99.90
6518;DHT22;3292;48.944;9.240;2023-02-01T08:18:50;4.90;99.90
6518;DHT22;3292;48.944;9.240;2023-02-01T08:21:20;4.90;99.90
6518;DHT22;3292;48.944;9.240;2023-02-01T08:23:48;4.90;99.90
6518;DHT22;3292;48.944;9.240;2023-02-01T08:26:17;5.00;99.90
6518;DHT22;3292;48.944;9.240;2023-02-01T08:28:48;5.00;99.90
6518;DHT22;3292;48.944;9.240;2023-02-01T08:31:17;5.10;99.90
6518;DHT22;3292;48.944;9.240;2023-02-01T08:33:49;5.10;99.90
6518;DHT22;3292;48.944;9.240;2023-02-01T08:36:19;5.10;99.90
6518;DHT22;3292;48.944;9.240;2023-02-01T08:38:46;5.20;99.90
6518;DHT22;3292;48.944;9.240;2023-02-01T08:41:14;5.20;99.90
6518;DHT22;3292;48.944;9.240;2023-02-01T08:43:42;5.20;99.90
6518;DHT22;3292;48.944;9.240;2023-02-01T08:46:10;5.20;99.90
6518;DHT22;3292;48.944;9.240;2023-02-01T08:48:37;5.30;99.90
6518;DHT22;3292;48.944;9.240;2023-02-01T08:51:07;5.30;99.90
6518;DHT22;3292;48.944;9.240;2023-02-01T08:53:36;5.30;99.90
6518;DHT22;3292;48.944;9.240;2023-02-01T08:56:03;5.30;99.90
6518;DHT22;3292;48.944;9.240;2023-02-01T08:58:31;5.30;99.90
6518;DHT22;3292;48.944;9.240;2023-02-01T09:01:02;5.30;99.90
6518;DHT22;3292;48.944;9.240;2023-02-01T09:03:29;5.40;99.90
6518;DHT22;3292;48.944;9.240;2023-02-01T09:06:00;5.40;99.90
6518;DHT22;3292;48.944;9.240;2023-02-01T09:08:27;5.40;99.90
6518;DHT22;3292;48.944;9.240;2023-02-01T09:10:58;5.40;99.90
6518;DHT22;3292;48.944;9.240;2023-02-01T09:13:25;5.50;99.90
6518;DHT22;3292;48.944;9.240;2023-02-01T09:15:52;5.50;99.90
6518;DHT22;3292;48.944;9.240;2023-02-01T09:18:19;5.50;99.90
6518;DHT22;3292;48.944;9.240;2023-02-01T09:20:46;5.60;99.90
6518;DHT22;3292;48.944;9.240;2023-02-01T09:23:13;5.60;99.90
6518;DHT22;3292;48.944;9.240;2023-02-01T09:25:40;5.60;99.90
6518;DHT22;3292;48.944;9.240;2023-02-01T09:28:08;5.70;99.90
6518;DHT22;3292;48.944;9.240;2023-02-01T09:30:35;5.80;99.90
6518;DHT22;3292;48.944;9.240;2023-02-01T09:33:03;5.80;99.90
6518;DHT22;3292;48.944;9.240;2023-02-01T09:35:30;5.80;99.90
6518;DHT22;3292;48.944;9.240;2023-02-01T09:37:57;5.80;99.90
6518;DHT22;3292;48.944;9.240;2023-02-01T09:40:24;5.80;99.90
6518;DHT22;3292;48.944;9.240;2023-02-01T09:43:07;5.70;99.90
6518;DHT22;3292;48.944;9.240;2023-02-01T09:45:44;5.70;99.90
6518;DHT22;3292;48.944;9.240;2023-02-01T09:48:17;5.70;99.90
6518;DHT22;3292;48.944;9.240;2023-02-01T09:50:49;5.70;99.90
6518;DHT22;3292;48.944;9.240;2023-02-01T09:53:22;5.70;99.90
6518;DHT22;3292;48.944;9.240;2023-02-01T09:55:53;5.80;99.90
6518;DHT22;3292;48.944;9.240;2023-02-01T09:58:27;5.80;99.90
6518;DHT22;3292;48.944;9.240;2023-02-01T10:00:59;5.80;99.90
6518;DHT22;3292;48.944;9.240;2023-02-01T10:03:28;5.90;99.90
6518;DHT22;3292;48.944;9.240;2023-02-01T10:06:33;5.90;99.90
6518;DHT22;3292;48.944;9.240;2023-02-01T10:09:23;5.90;99.90
6518;DHT22;3292;48.944;9.240;2023-02-01T10:12:13;6.00;99.90
6518;DHT22;3292;48.944;9.240;2023-02-01T10:14:56;6.00;99.90
6518;DHT22;3292;48.944;9.240;2023-02-01T10:17:46;6.00;99.90
6518;DHT22;3292;48.944;9.240;2023-02-01T10:20:18;6.10;99.90
6518;DHT22;3292;48.944;9.240;2023-02-01T10:22:56;6.10;99.90
6518;DHT22;3292;48.944;9.240;2023-02-01T10:25:28;6.10;99.90
6518;DHT22;3292;48.944;9.240;2023-02-01T10:27:56;6.10;99.90
6518;DHT22;3292;48.944;9.240;2023-02-01T10:30:25;6.20;99.90
6518;DHT22;3292;48.944;9.240;2023-02-01T10:35:40;6.30;99.90
6518;DHT22;3292;48.944;9.240;2023-02-01T10:38:16;6.30;99.90
6518;DHT22;3292;48.944;9.240;2023-02-01T10:40:43;6.30;99.90
6518;DHT22;3292;48.944;9.240;2023-02-01T10:43:10;6.30;99.90
6518;DHT22;3292;48.944;9.240;2023-02-01T10:45:37;6.30;99.90
6518;DHT22;3292;48.944;9.240;2023-02-01T10:48:08;6.30;99.90
6518;DHT22;3292;48.944;9.240;2023-02-01T10:51:05;6.20;99.90
6518;DHT22;3292;48.944;9.240;2023-02-01T10:53:36;6.20;99.90
6518;DHT22;3292;48.944;9.240;2023-02-01T10:56:06;6.20;99.90
6518;DHT22;3292;48.944;9.240;2023-02-01T10:58:36;6.20;99.90
6518;DHT22;3292;48.944;9.240;2023-02-01T11:01:04;6.20;99.90
6518;DHT22;3292;48.944;9.240;2023-02-01T11:03:36;6.20;99.90
6518;DHT22;3292;48.944;9.240;2023-02-01T11:06:11;6.20;99.90
6518;DHT22;3292;48.944;9.240;2023-02-01T11:08:45;6.20;99.90
6518;DHT22;3292;48.944;9.240;2023-02-01T11:11:12;6.20;99.90
6518;DHT22;3292;48.944;9.240;2023-02-01T11:13:40;6.20;99.90
6518;DHT22;3292;48.944;9.240;2023-02-01T11:16:11;6.30;99.90
6518;DHT22;3292;48.944;9.240;2023-02-01T11:21:55;6.20;99.90
6518;DHT22;3292;48.944;9.240;2023-02-01T11:24:23;6.20;99.90
6518;DHT22;3292;48.944;9.240;2023-02-01T11:26:53;6.30;99.90
6518;DHT22;3292;48.944;9.240;2023-02-01T11:29:21;6.30;99.90
6518;DHT22;3292;48.944;9.240;2023-02-01T11:31:55;6.30;99.90
6518;DHT22;3292;48.944;9.240;2023-02-01T11:34:26;6.20;99.90
6518;DHT22;3292;48.944;9.240;2023-02-01T11:36:59;6.20;99.90
6518;DHT22;3292;48.944;9.240;2023-02-01T11:39:28;6.20;99.90
6518;DHT22;3292;48.944;9.240;2023-02-01T11:42:00;6.20;99.90
6518;DHT22;3292;48.944;9.240;2023-02-01T11:44:32;6.30;99.90
6518;DHT22;3292;48.944;9.240;2023-02-01T11:47:22;6.30;99.90
6518;DHT22;3292;48.944;9.240;2023-02-01T11:49:50;6.30;99.90
6518;DHT22;3292;48.944;9.240;2023-02-01T11:55:42;6.40;99.90
6518;DHT22;3292;48.944;9.240;2023-02-01T11:58:33;6.50;99.90
6518;DHT22;3292;48.944;9.240;2023-02-01T12:01:13;6.40;99.90
6518;DHT22;3292;48.944;9.240;2023-02-01T12:06:48;6.50;99.90
6518;DHT22;3292;48.944;9.240;2023-02-01T12:09:30;6.50;99.90
6518;DHT22;3292;48.944;9.240;2023-02-01T12:12:06;6.50;99.90
6518;DHT22;3292;48.944;9.240;2023-02-01T12:14:44;6.50;99.90
6518;DHT22;3292;48.944;9.240;2023-02-01T12:17:25;6.40;99.90
6518;DHT22;3292;48.944;9.240;2023-02-01T12:20:08;6.40;99.90
6518;DHT22;3292;48.944;9.240;2023-02-01T12:22:47;6.40;99.90
6518;DHT22;3292;48.944;9.240;2023-02-01T12:25:33;6.40;99.90
6518;DHT22;3292;48.944;9.240;2023-02-01T12:28:22;6.40;99.90
6518;DHT22;3292;48.944;9.240;2023-02-01T12:31:20;6.30;99.90
6518;DHT22;3292;48.944;9.240;2023-02-01T12:34:13;6.30;99.90
6518;DHT22;3292;48.944;9.240;2023-02-01T12:36:50;6.30;99.90
6518;DHT22;3292;48.944;9.240;2023-02-01T12:39:23;6.30;99.90
6518;DHT22;3292;48.944;9.240;2023-02-01T12:41:57;6.30;99.90
6518;DHT22;3292;48.944;9.240;2023-02-01T12:44:39;6.30;99.90
6518;DHT22;3292;48.944;9.240;2023-02-01T12:47:14;6.30;99.90
6518;DHT22;3292;48.944;9.240;2023-02-01T12:49:48;6.30;99.90
6518;DHT22;3292;48.944;9.240;2023-02-01T12:52:19;6.30;99.90
6518;DHT22;3292;48.944;9.240;2023-02-01T12:54:50;6.30;99.90
6518;DHT22;3292;48.944;9.240;2023-02-01T12:57:25;6.20;99.90
6518;DHT22;3292;48.944;9.240;2023-02-01T12:59:56;6.20;99.90
6518;DHT22;3292;48.944;9.240;2023-02-01T13:02:30;6.30;99.90
6518;DHT22;3292;48.944;9.240;2023-02-01T13:05:11;6.30;99.90
6518;DHT22;3292;48.944;9.240;2023-02-01T13:07:44;6.30;99.90
6518;DHT22;3292;48.944;9.240;2023-02-01T13:10:15;6.40;99.90
6518;DHT22;3292;48.944;9.240;2023-02-01T13:12:50;6.40;99.90
6518;DHT22;3292;48.944;9.240;2023-02-01T13:15:23;6.40;99.90
6518;DHT22;3292;48.944;9.240;2023-02-01T13:21:12;6.30;99.90
6518;DHT22;3292;48.944;9.240;2023-02-01T13:23:42;6.20;99.90
6518;DHT22;3292;48.944;9.240;2023-02-01T13:26:11;6.20;99.90
6518;DHT22;3292;48.944;9.240;2023-02-01T13:28:42;6.10;99.90
6518;DHT22;3292;48.944;9.240;2023-02-01T13:31:25;6.10;99.90
6518;DHT22;3292;48.944;9.240;2023-02-01T13:37:01;6.00;99.90
6518;DHT22;3292;48.944;9.240;2023-02-01T13:39:48;6.10;99.90
6518;DHT22;3292;48.944;9.240;2023-02-01T13:42:21;6.00;99.90
6518;DHT22;3292;48.944;9.240;2023-02-01T13:44:52;6.00;99.90
6518;DHT22;3292;48.944;9.240;2023-02-01T13:47:26;6.00;99.90
6518;DHT22;3292;48.944;9.240;2023-02-01T13:49:55;6.10;99.90
6518;DHT22;3292;48.944;9.240;2023-02-01T13:52:30;6.00;99.90
6518;DHT22;3292;48.944;9.240;2023-02-01T13:55:03;6.00;99.90
6518;DHT22;3292;48.944;9.240;2023-02-01T13:57:42;6.00;99.90
6518;DHT22;3292;48.944;9.240;2023-02-01T14:00:24;6.00;99.90
6518;DHT22;3292;48.944;9.240;2023-02-01T14:03:16;6.00;99.90
6518;DHT22;3292;48.944;9.240;2023-02-01T14:06:01;6.10;99.90
6518;DHT22;3292;48.944;9.240;2023-02-01T14:09:11;6.10;99.90
6518;DHT22;3292;48.944;9.240;2023-02-01T14:11:41;6.10;99.90
6518;DHT22;3292;48.944;9.240;2023-02-01T14:17:36;6.10;99.90
6518;DHT22;3292;48.944;9.240;2023-02-01T14:23:22;6.00;99.90
6518;DHT22;3292;48.944;9.240;2023-02-01T14:26:09;6.00;99.90
6518;DHT22;3292;48.944;9.240;2023-02-01T14:28:42;6.00;99.90
6518;DHT22;3292;48.944;9.240;2023-02-01T14:31:31;6.00;99.90
6518;DHT22;3292;48.944;9.240;2023-02-01T14:34:09;6.00;99.90
6518;DHT22;3292;48.944;9.240;2023-02-01T14:36:44;5.90;99.90
6518;DHT22;3292;48.944;9.240;2023-02-01T14:39:24;5.90;99.90
6518;DHT22;3292;48.944;9.240;2023-02-01T14:41:57;5.90;99.90
6518;DHT22;3292;48.944;9.240;2023-02-01T14:44:30;5.90;99.90
6518;DHT22;3292;48.944;9.240;2023-02-01T14:50:33;5.90;99.90
6518;DHT22;3292;48.944;9.240;2023-02-01T14:53:19;5.90;99.90
6518;DHT22;3292;48.944;9.240;2023-02-01T14:55:51;5.90;99.90
6518;DHT22;3292;48.944;9.240;2023-02-01T14:58:25;5.90;99.90
6518;DHT22;3292;48.944;9.240;2023-02-01T15:00:55;5.90;99.90
6518;DHT22;3292;48.944;9.240;2023-02-01T15:03:45;5.90;99.90
6518;DHT22;3292;48.944;9.240;2023-02-01T15:06:31;5.90;99.90
6518;DHT22;3292;48.944;9.240;2023-02-01T15:09:02;5.90;99.90
6518;DHT22;3292;48.944;9.240;2023-02-01T15:11:33;5.90;99.90
6518;DHT22;3292;48.944;9.240;2023-02-01T15:14:19;5.90;99.90
6518;DHT22;3292;48.944;9.240;2023-02-01T15:16:46;5.90;99.90
6518;DHT22;3292;48.944;9.240;2023-02-01T15:19:20;5.90;99.90
6518;DHT22;3292;48.944;9.240;2023-02-01T15:21:51;5.90;99.90
6518;DHT22;3292;48.944;9.240;2023-02-01T15:24:23;5.90;99.90
6518;DHT22;3292;48.944;9.240;2023-02-01T15:27:04;6.00;99.90
6518;DHT22;3292;48.944;9.240;2023-02-01T15:29:31;6.00;99.90
6518;DHT22;3292;48.944;9.240;2023-02-01T15:31:59;6.00;99.90
6518;DHT22;3292;48.944;9.240;2023-02-01T15:34:45;6.00;99.90
6518;DHT22;3292;48.944;9.240;2023-02-01T15:37:15;6.00;99.90
6518;DHT22;3292;48.944;9.240;2023-02-01T15:42:55;6.10;99.90
6518;DHT22;3292;48.944;9.240;2023-02-01T15:45:29;6.10;99.90
6518;DHT22;3292;48.944;9.240;2023-02-01T15:47:59;6.10;99.90
6518;DHT22;3292;48.944;9.240;2023-02-01T15:50:28;6.10;99.90
6518;DHT22;3292;48.944;9.240;2023-02-01T15:52:58;6.10;99.90
6518;DHT22;3292;48.944;9.240;2023-02-01T15:55:33;6.10;99.90
6518;DHT22;3292;48.944;9.240;2023-02-01T15:58:05;6.10;99.90
6518;DHT22;3292;48.944;9.240;2023-02-01T16:00:42;6.10;99.90
6518;DHT22;3292;48.944;9.240;2023-02-01T16:03:25;6.10;99.90
6518;DHT22;3292;48.944;9.240;2023-02-01T16:05:58;6.10;99.90
6518;DHT22;3292;48.944;9.240;2023-02-01T16:08:30;6.10;99.90
6518;DHT22;3292;48.944;9.240;2023-02-01T16:11:01;6.10;99.90
6518;DHT22;3292;48.944;9.240;2023-02-01T16:13:40;6.10;99.90
6518;DHT22;3292;48.944;9.240;2023-02-01T16:16:08;6.10;99.90
6518;DHT22;3292;48.944;9.240;2023-02-01T16:18:39;6.10;99.90
6518;DHT22;3292;48.944;9.240;2023-02-01T16:21:06;6.10;99.90
6518;DHT22;3292;48.944;9.240;2023-02-01T16:23:35;6.10;99.90
6518;DHT22;3292;48.944;9.240;2023-02-01T16:26:03;6.00;99.90
6518;DHT22;3292;48.944;9.240;2023-02-01T16:28:31;6.00;99.90
6518;DHT22;3292;48.944;9.240;2023-02-01T16:30:58;6.00;99.90
6518;DHT22;3292;48.944;9.240;2023-02-01T16:33:26;6.10;99.90
6518;DHT22;3292;48.944;9.240;2023-02-01T16:35:55;6.00;99.90
6518;DHT22;3292;48.944;9.240;2023-02-01T16:38:27;6.00;99.90
6518;DHT22;3292;48.944;9.240;2023-02-01T16:40:55;6.00;99.90
6518;DHT22;3292;48.944;9.240;2023-02-01T16:43:25;6.00;99.90
6518;DHT22;3292;48.944;9.240;2023-02-01T16:45:54;6.00;99.90
6518;DHT22;3292;48.944;9.240;2023-02-01T16:48:23;5.90;99.90
6518;DHT22;3292;48.944;9.240;2023-02-01T16:50:53;5.90;99.90
6518;DHT22;3292;48.944;9.240;2023-02-01T16:53:21;6.00;99.90
6518;DHT22;3292;48.944;9.240;2023-02-01T16:55:49;5.90;99.90
6518;DHT22;3292;48.944;9.240;2023-02-01T16:58:19;5.90;99.90
6518;DHT22;3292;48.944;9.240;2023-02-01T17:00:46;6.00;99.90
6518;DHT22;3292;48.944;9.240;2023-02-01T17:03:29;6.00;99.90
6518;DHT22;3292;48.944;9.240;2023-02-01T17:06:04;6.00;99.90
6518;DHT22;3292;48.944;9.240;2023-02-01T17:08:33;6.00;99.90
6518;DHT22;3292;48.944;9.240;2023-02-01T17:11:01;6.00;99.90
6518;DHT22;3292;48.944;9.240;2023-02-01T17:13:29;6.00;99.90
6518;DHT22;3292;48.944;9.240;2023-02-01T17:15:58;5.90;99.90
6518;DHT22;3292;48.944;9.240;2023-02-01T17:18:27;5.90;99.90
6518;DHT22;3292;48.944;9.240;2023-02-01T17:20:56;5.90;99.90
6518;DHT22;3292;48.944;9.240;2023-02-01T17:23:23;6.00;99.90
6518;DHT22;3292;48.944;9.240;2023-02-01T17:25:50;6.00;99.90
6518;DHT22;3292;48.944;9.240;2023-02-01T17:28:17;6.00;99.90
6518;DHT22;3292;48.944;9.240;2023-02-01T17:30:45;6.00;99.90
6518;DHT22;3292;48.944;9.240;2023-02-01T17:33:19;6.00;99.90